Main page
Satellite images 15-day forecastsClimateMarine weather Cyclones Lightning AirportsFAQ Newsletter About
Weather : Europe Africa North America South America Asia Australia-Oceania Others
Languages Contact

Bauru, São Paulo, Brazil

latitude: 22-19S, longitude: 049-04W, elevation: 590 m


METAR: SBBU 230400Z 15012KT CAVOK 18/16 Q1019
TAF: missing

Time: 02:28 (04:28 UTC)

Current weather observation

The report was made 28 minutes ago, at 04:00 UTC
Wind 12 kt from the South/Southeast
Temperature 18°C
Humidity 88%
Pressure 1019 hPa
Visibility 10 km or more
no clouds below 1500 m and no cumulonimbus

Change units
The information on this site is subject to a disclaimer
Weather : Europe Africa North America South America Asia Australia-Oceania Others
Satellite images 15-day forecastsClimateMarine weather Cyclones Lightning AirportsFAQ Languages Contact Newsletter About